Time;durP1;ratioP1;P1;durP2;ratioP2;P2;SDS_P1;SDS_P2;PMS_P1;PMS_P2;Temp;Humidity;BMP_temperature;BMP_pressure;BME280_temperature;BME280_humidity;BME280_pressure;Samples;Min_cycle;Max_cycle;Signal;HPM_P1;HPM_P2
2022/11/16 00:00:48;;;;;;;0.00;0.00;;;;;;;;;;5020461;28;20030;-71
2022/11/16 00:03:14;;;;;;;0.00;0.00;;;;;;;;;;5032499;28;20075;-72
2022/11/16 00:05:40;;;;;;;0.00;0.00;;;;;;;;;;5020974;28;20033;-72
2022/11/16 00:08:07;;;;;;;0.40;0.40;;;;;;;;;;5024105;28;20025;-72
2022/11/16 00:10:33;;;;;;;0.80;0.80;;;;;;;;;;5018317;28;20441;-71
2022/11/16 00:12:59;;;;;;;0.00;0.00;;;;;;;;;;5031928;28;20042;-72
2022/11/16 00:15:26;;;;;;;0.15;0.10;;;;;;;;;;5026561;28;20488;-72
2022/11/16 00:17:52;;;;;;;0.00;0.00;;;;;;;;;;5028691;28;20034;-72
2022/11/16 00:20:19;;;;;;;0.00;0.00;;;;;;;;;;5032990;28;20034;-71
2022/11/16 00:22:45;;;;;;;0.13;0.13;;;;;;;;;;5032689;28;20088;-72
2022/11/16 00:25:11;;;;;;;0.00;0.00;;;;;;;;;;5031624;28;20022;-71
2022/11/16 00:27:38;;;;;;;0.00;0.00;;;;;;;;;;5021562;28;20030;-71
2022/11/16 00:30:04;;;;;;;8.90;8.48;;;;;;;;;;5012899;28;20022;-71
2022/11/16 00:32:30;;;;;;;2.50;2.30;;;;;;;;;;5015458;28;20473;-71
2022/11/16 00:34:57;;;;;;;0.00;0.00;;;;;;;;;;5016492;28;20117;-72
2022/11/16 00:37:23;;;;;;;0.00;0.00;;;;;;;;;;5025005;28;20036;-72
2022/11/16 00:39:49;;;;;;;2.38;1.10;;;;;;;;;;5035603;28;20133;-71
2022/11/16 00:42:16;;;;;;;0.03;0.03;;;;;;;;;;5033371;28;20108;-71
2022/11/16 00:44:42;;;;;;;0.00;0.00;;;;;;;;;;5035834;28;20042;-72
2022/11/16 00:47:08;;;;;;;0.00;0.00;;;;;;;;;;5029603;28;20383;-71
2022/11/16 00:49:37;;;;;;;0.10;0.10;;;;;;;;;;5027519;28;20030;-72
2022/11/16 00:52:03;;;;;;;0.00;0.00;;;;;;;;;;5032782;28;20036;-71
2022/11/16 00:54:29;;;;;;;0.00;0.00;;;;;;;;;;5026756;28;20025;-72
2022/11/16 00:56:56;;;;;;;0.03;0.03;;;;;;;;;;5032589;28;20159;-72
2022/11/16 00:59:22;;;;;;;4.75;1.15;;;;;;;;;;5032716;28;20036;-71
2022/11/16 01:01:48;;;;;;;0.90;0.90;;;;;;;;;;5032649;28;20371;-71
2022/11/16 01:04:14;;;;;;;0.00;0.00;;;;;;;;;;5033641;28;20041;-72
2022/11/16 01:06:41;;;;;;;0.38;0.38;;;;;;;;;;5035496;28;20476;-71
2022/11/16 01:09:07;;;;;;;1.65;1.55;;;;;;;;;;5031280;28;20365;-73
2022/11/16 01:14:18;;;;;;;0.93;0.93;;;;;;;;;;5035552;28;20511;-72
2022/11/16 01:16:44;;;;;;;0.00;0.00;;;;;;;;;;5035576;28;20387;-72
2022/11/16 01:19:11;;;;;;;1.40;1.30;;;;;;;;;;5020686;28;20029;-72
2022/11/16 01:21:37;;;;;;;0.05;0.05;;;;;;;;;;5035368;28;20030;-72
2022/11/16 01:24:03;;;;;;;0.13;0.10;;;;;;;;;;5035066;28;20021;-73
2022/11/16 01:26:30;;;;;;;0.00;0.00;;;;;;;;;;5033873;28;20033;-70
2022/11/16 01:28:57;;;;;;;5.72;2.33;;;;;;;;;;5033120;28;20349;-71
2022/11/16 01:31:24;;;;;;;0.93;0.82;;;;;;;;;;5034638;28;20024;-71
2022/11/16 01:33:50;;;;;;;2.85;2.65;;;;;;;;;;5032469;28;20048;-71
2022/11/16 01:36:16;;;;;;;1.38;1.33;;;;;;;;;;5034759;28;21517;-72
2022/11/16 01:38:44;;;;;;;2.92;2.83;;;;;;;;;;5020158;28;20034;-72
2022/11/16 01:41:15;;;;;;;0.00;0.00;;;;;;;;;;5019148;28;20021;-72
2022/11/16 01:43:51;;;;;;;0.30;0.25;;;;;;;;;;5026224;28;20111;-72
2022/11/16 01:46:18;;;;;;;2.88;0.98;;;;;;;;;;4984749;28;20046;-72
2022/11/16 01:48:45;;;;;;;0.25;0.15;;;;;;;;;;4986551;28;20069;-74
2022/11/16 01:51:11;;;;;;;3.95;2.60;;;;;;;;;;4995024;28;20109;-72
2022/11/16 01:53:38;;;;;;;15.50;1.27;;;;;;;;;;4994436;28;20101;-72
2022/11/16 01:56:05;;;;;;;10.40;9.85;;;;;;;;;;4992313;28;20034;-72
2022/11/16 01:58:31;;;;;;;1.65;1.55;;;;;;;;;;4986239;28;20034;-72
2022/11/16 02:00:57;;;;;;;1.25;1.13;;;;;;;;;;4988138;28;20031;-73
2022/11/16 02:03:25;;;;;;;0.93;0.63;;;;;;;;;;4994052;28;20106;-73
2022/11/16 02:06:10;;;;;;;0.22;0.22;;;;;;;;;;4993721;28;20030;-72
2022/11/16 02:11:52;;;;;;;0.10;0.10;;;;;;;;;;4979256;28;20469;-72
2022/11/16 02:14:27;;;;;;;0.63;0.60;;;;;;;;;;4985379;28;20168;-72
2022/11/16 02:17:01;;;;;;;0.73;0.73;;;;;;;;;;4989097;28;20030;-74
2022/11/16 02:19:54;;;;;;;0.52;0.52;;;;;;;;;;4984989;28;20389;-73
2022/11/16 02:22:32;;;;;;;2.88;1.05;;;;;;;;;;4986297;28;20034;-72
2022/11/16 02:25:10;;;;;;;2.38;1.77;;;;;;;;;;4986762;28;20053;-72
2022/11/16 02:27:49;;;;;;;1.70;1.60;;;;;;;;;;4981645;28;20454;-73
2022/11/16 02:30:17;;;;;;;0.28;0.28;;;;;;;;;;4985307;28;20536;-74
2022/11/16 02:32:47;;;;;;;1.95;1.75;;;;;;;;;;4986638;28;20034;-77
2022/11/16 02:35:19;;;;;;;0.45;0.45;;;;;;;;;;4981683;28;20037;-76
2022/11/16 02:37:54;;;;;;;0.10;0.10;;;;;;;;;;4985540;28;20030;-76
2022/11/16 02:40:22;;;;;;;1.52;1.42;;;;;;;;;;4987603;28;20031;-76
2022/11/16 02:42:51;;;;;;;0.00;0.00;;;;;;;;;;4986913;28;20038;-77
2022/11/16 02:45:22;;;;;;;0.25;0.25;;;;;;;;;;5010925;28;20057;-80
2022/11/16 02:47:50;;;;;;;0.00;0.00;;;;;;;;;;5026306;28;20044;-80
2022/11/16 02:50:18;;;;;;;1.90;1.65;;;;;;;;;;5021780;28;20121;-82
2022/11/16 02:52:45;;;;;;;3.92;3.72;;;;;;;;;;5023373;28;20029;-68
2022/11/16 02:55:11;;;;;;;0.00;0.00;;;;;;;;;;5017781;28;20075;-68
2022/11/16 02:57:46;;;;;;;1.60;1.50;;;;;;;;;;5025444;28;20651;-69
2022/11/16 03:00:16;;;;;;;7.80;2.80;;;;;;;;;;5020257;28;20060;-70
2022/11/16 03:02:47;;;;;;;0.68;0.60;;;;;;;;;;5021337;28;20029;-71
2022/11/16 03:05:17;;;;;;;3.40;1.50;;;;;;;;;;5023872;28;20037;-69
2022/11/16 03:07:49;;;;;;;3.17;2.10;;;;;;;;;;5019737;28;20038;-70
2022/11/16 03:11:58;;;;;;;6.80;3.92;;;;;;;;;;5017063;28;20400;-70
2022/11/16 03:13:05;;;;;;;1.50;1.45;;;;;;;;;;5017641;28;20139;-71
2022/11/16 03:15:32;;;;;;;25.40;5.45;;;;;;;;;;5014688;28;20056;-72
2022/11/16 03:18:00;;;;;;;10.93;6.03;;;;;;;;;;5019784;28;20038;-72
2022/11/16 03:20:27;;;;;;;8.88;3.60;;;;;;;;;;5017944;28;20053;-72
2022/11/16 03:22:57;;;;;;;9.30;5.28;;;;;;;;;;5018746;28;20042;-71
2022/11/16 03:25:24;;;;;;;13.57;5.80;;;;;;;;;;5018027;28;20326;-71
2022/11/16 03:27:56;;;;;;;0.70;0.70;;;;;;;;;;5019470;28;20467;-72
2022/11/16 03:30:30;;;;;;;1.45;1.30;;;;;;;;;;5015827;28;20030;-70
2022/11/16 03:33:10;;;;;;;1.83;1.73;;;;;;;;;;5017912;28;20384;-70
2022/11/16 03:35:42;;;;;;;16.30;9.80;;;;;;;;;;5019349;28;20044;-72
2022/11/16 03:38:12;;;;;;;2.17;2.05;;;;;;;;;;5018379;28;20062;-71
2022/11/16 03:40:39;;;;;;;1.73;1.20;;;;;;;;;;5021284;28;20033;-71
2022/11/16 03:43:06;;;;;;;7.82;2.55;;;;;;;;;;5018524;28;20064;-69
2022/11/16 03:45:33;;;;;;;2.55;2.38;;;;;;;;;;5020352;28;20052;-73
2022/11/16 03:48:00;;;;;;;7.70;2.38;;;;;;;;;;5020818;28;20045;-71
2022/11/16 03:50:26;;;;;;;52.40;48.22;;;;;;;;;;5011149;28;20379;-71
2022/11/16 03:52:53;;;;;;;0.00;0.00;;;;;;;;;;5014198;28;20049;-70
2022/11/16 03:55:19;;;;;;;7.68;7.20;;;;;;;;;;5012829;28;20529;-71
2022/11/16 03:57:45;;;;;;;0.00;0.00;;;;;;;;;;5019048;28;20065;-71
2022/11/16 04:00:12;;;;;;;53.58;49.65;;;;;;;;;;5027936;28;20040;-72
2022/11/16 04:02:38;;;;;;;8.90;8.48;;;;;;;;;;5021414;28;20083;-74
2022/11/16 04:24:39;;;;;;;1.30;0.30;;;;;;;;;;5026939;28;20123;-72
2022/11/16 04:29:55;;;;;;;0.70;0.65;;;;;;;;;;5019793;28;20734;-70
2022/11/16 04:37:54;;;;;;;1.00;1.00;;;;;;;;;;5018070;28;20055;-70
2022/11/16 04:40:24;;;;;;;26.67;25.05;;;;;;;;;;5024676;28;20040;-70
2022/11/16 04:42:51;;;;;;;20.70;19.45;;;;;;;;;;5021315;28;20659;-69
2022/11/16 04:48:03;;;;;;;46.97;44.22;;;;;;;;;;5024169;28;20115;-68
2022/11/16 04:50:29;;;;;;;108.38;102.50;;;;;;;;;;5027551;28;20033;-70
2022/11/16 04:52:56;;;;;;;55.28;52.35;;;;;;;;;;5025941;28;20072;-69
2022/11/16 04:55:22;;;;;;;1.17;1.17;;;;;;;;;;5023299;28;20126;-70
2022/11/16 04:57:48;;;;;;;0.00;0.00;;;;;;;;;;5026481;28;20068;-68
2022/11/16 15:49:38;;;;;;;0.00;0.00;;;;;;;;;;5124897;27;20403;-78
2022/11/16 15:52:04;;;;;;;1.93;0.60;;;;;;;;;;5114995;28;20024;-83
2022/11/16 15:57:18;;;;;;;0.10;0.10;;;;;;;;;;5121496;28;20046;-78
2022/11/16 15:59:54;;;;;;;0.40;0.40;;;;;;;;;;5121657;28;20015;-79
2022/11/16 16:02:26;;;;;;;3.17;3.07;;;;;;;;;;5087210;28;20506;-78
2022/11/16 16:04:53;;;;;;;6.77;4.37;;;;;;;;;;5129494;28;20011;-78
2022/11/16 16:07:46;;;;;;;2.57;2.47;;;;;;;;;;5112298;28;20032;-78
2022/11/16 16:10:19;;;;;;;0.30;0.30;;;;;;;;;;5127883;28;20016;-79
2022/11/16 16:12:56;;;;;;;0.10;0.10;;;;;;;;;;5096532;28;20118;-77
2022/11/16 16:15:24;;;;;;;0.00;0.00;;;;;;;;;;5110503;28;20024;-78
2022/11/16 16:18:09;;;;;;;1.03;0.97;;;;;;;;;;5102011;28;20395;-78
2022/11/16 16:20:35;;;;;;;2.53;2.20;;;;;;;;;;5106442;28;20537;-82
2022/11/16 16:23:08;;;;;;;0.57;0.57;;;;;;;;;;5109512;28;20047;-79
2022/11/16 16:25:35;;;;;;;0.10;0.10;;;;;;;;;;5108767;28;20144;-79
2022/11/16 16:28:01;;;;;;;0.93;0.93;;;;;;;;;;5091549;28;20548;-77
2022/11/16 16:30:28;;;;;;;1.20;1.13;;;;;;;;;;5091160;28;20023;-78
2022/11/16 16:32:54;;;;;;;24.73;23.33;;;;;;;;;;5101911;28;20114;-78
2022/11/16 16:35:22;;;;;;;0.30;0.30;;;;;;;;;;5118540;28;20031;-78
2022/11/16 16:37:49;;;;;;;0.93;0.93;;;;;;;;;;5123019;28;20023;-78
2022/11/16 16:52:07;;;;;;;2.27;2.10;;;;;;;;;;5069849;27;20395;-77
2022/11/16 16:54:33;;;;;;;3.10;2.50;;;;;;;;;;5050419;28;20025;-77
2022/11/16 16:57:01;;;;;;;2.20;1.03;;;;;;;;;;5045868;28;20412;-77
2022/11/16 16:59:28;;;;;;;2.67;2.00;;;;;;;;;;5038744;28;20113;-76
2022/11/16 17:01:55;;;;;;;7.33;4.57;;;;;;;;;;5041854;28;20032;-77
2022/11/16 17:04:21;;;;;;;2.00;1.80;;;;;;;;;;5063689;28;20077;-77
2022/11/16 17:06:50;;;;;;;3.80;3.10;;;;;;;;;;5040111;28;20844;-78
2022/11/16 17:09:27;;;;;;;0.53;0.53;;;;;;;;;;5035310;28;20052;-76
2022/11/16 17:11:53;;;;;;;1.93;1.83;;;;;;;;;;5041555;28;20108;-77
2022/11/16 17:14:23;;;;;;;1.37;1.27;;;;;;;;;;5053267;28;20013;-79
2022/11/16 17:16:50;;;;;;;15.20;7.20;;;;;;;;;;5053080;28;20112;-78
2022/11/16 17:19:18;;;;;;;5.13;4.73;;;;;;;;;;5058246;28;20025;-78
2022/11/16 17:21:44;;;;;;;5.97;5.37;;;;;;;;;;5056872;28;20025;-78
2022/11/16 17:24:11;;;;;;;12.73;5.73;;;;;;;;;;5044388;28;20018;-79
2022/11/16 17:26:37;;;;;;;12.23;8.50;;;;;;;;;;5043990;28;20504;-78
2022/11/16 17:29:03;;;;;;;0.60;0.60;;;;;;;;;;5054833;28;20067;-79
2022/11/16 17:31:30;;;;;;;3.30;2.67;;;;;;;;;;5049972;28;20064;-78
2022/11/16 17:33:56;;;;;;;13.43;6.17;;;;;;;;;;5064868;28;20024;-79
2022/11/16 17:36:23;;;;;;;9.17;7.20;;;;;;;;;;5053447;28;20029;-78
2022/11/16 17:38:49;;;;;;;12.70;5.67;;;;;;;;;;5049232;28;20056;-78
2022/11/16 17:41:17;;;;;;;11.37;8.97;;;;;;;;;;5047238;28;20032;-79
2022/11/16 17:43:44;;;;;;;5.33;4.33;;;;;;;;;;5043128;28;20090;-78
2022/11/16 17:46:12;;;;;;;17.63;11.43;;;;;;;;;;5041590;28;20469;-78
2022/11/16 17:48:39;;;;;;;20.80;13.73;;;;;;;;;;5036893;28;20028;-78
2022/11/16 17:51:06;;;;;;;9.23;8.10;;;;;;;;;;5029408;28;20053;-78
2022/11/16 17:53:33;;;;;;;18.33;9.97;;;;;;;;;;5015690;28;20061;-77
2022/11/16 17:56:00;;;;;;;15.93;14.33;;;;;;;;;;5015740;28;20025;-78
2022/11/16 18:00:17;;;;;;;23.23;20.80;;;;;;;;;;4993254;28;20468;-79
2022/11/16 18:02:44;;;;;;;11.97;10.80;;;;;;;;;;4976226;28;20067;-79
2022/11/16 18:05:10;;;;;;;12.80;8.60;;;;;;;;;;4985060;28;20062;-80
2022/11/16 18:07:39;;;;;;;37.63;20.83;;;;;;;;;;4981851;28;20031;-79
2022/11/16 18:10:05;;;;;;;10.87;6.87;;;;;;;;;;4990950;28;20453;-79
2022/11/16 18:12:31;;;;;;;15.67;14.47;;;;;;;;;;4973743;28;20085;-79
2022/11/16 18:14:58;;;;;;;5.37;4.70;;;;;;;;;;4974420;28;20034;-80
2022/11/16 18:17:24;;;;;;;28.83;18.37;;;;;;;;;;4973275;28;20039;-78
2022/11/16 18:19:50;;;;;;;7.63;5.07;;;;;;;;;;4974699;28;20037;-79
2022/11/16 18:22:17;;;;;;;8.27;4.33;;;;;;;;;;4977489;28;20026;-80
2022/11/16 18:24:43;;;;;;;10.47;4.47;;;;;;;;;;4995619;28;20428;-80
2022/11/16 18:27:10;;;;;;;4.13;2.97;;;;;;;;;;4988773;28;20034;-79
2022/11/16 18:29:36;;;;;;;3.47;2.70;;;;;;;;;;4992267;28;20085;-79
2022/11/16 18:32:02;;;;;;;12.33;6.87;;;;;;;;;;4973881;28;20034;-78
2022/11/16 18:34:29;;;;;;;10.13;4.93;;;;;;;;;;4976169;28;20031;-78
2022/11/16 18:36:55;;;;;;;4.90;1.90;;;;;;;;;;4991118;28;20041;-80
2022/11/16 18:39:21;;;;;;;12.20;7.43;;;;;;;;;;4973066;28;20081;-78
2022/11/16 18:41:50;;;;;;;16.33;8.70;;;;;;;;;;4990353;28;20029;-80
2022/11/16 18:44:16;;;;;;;5.97;4.07;;;;;;;;;;4990359;28;20022;-79
2022/11/16 18:46:43;;;;;;;19.17;8.17;;;;;;;;;;4977040;28;20034;-77
2022/11/16 18:49:09;;;;;;;6.93;3.93;;;;;;;;;;4970994;28;20126;-80
2022/11/16 18:51:35;;;;;;;5.63;4.80;;;;;;;;;;4953756;28;20106;-80
2022/11/16 18:54:02;;;;;;;9.47;8.47;;;;;;;;;;4971288;28;20035;-79
2022/11/16 18:56:28;;;;;;;25.27;9.03;;;;;;;;;;4951405;28;20042;-80
2022/11/16 18:58:55;;;;;;;12.33;6.80;;;;;;;;;;4960932;28;20051;-80
2022/11/16 19:01:22;;;;;;;14.33;8.37;;;;;;;;;;4953163;28;20058;-79
2022/11/16 19:03:49;;;;;;;5.40;3.93;;;;;;;;;;4953371;28;20086;-79
2022/11/16 19:06:16;;;;;;;4.63;1.50;;;;;;;;;;4970742;28;20114;-79
2022/11/16 19:08:43;;;;;;;0.30;0.30;;;;;;;;;;4970444;28;20049;-79
2022/11/16 19:11:11;;;;;;;15.13;7.33;;;;;;;;;;4959925;28;20381;-79
2022/11/16 19:13:38;;;;;;;9.23;5.23;;;;;;;;;;4957786;29;20054;-79
2022/11/16 19:16:08;;;;;;;12.47;4.30;;;;;;;;;;4940405;29;20122;-80
2022/11/16 19:18:34;;;;;;;0.63;0.63;;;;;;;;;;4957044;29;20166;-78
2022/11/16 19:21:07;;;;;;;4.60;4.17;;;;;;;;;;4939278;29;21627;-79
2022/11/16 19:23:41;;;;;;;8.50;5.57;;;;;;;;;;4955268;29;20035;-79
2022/11/16 19:26:08;;;;;;;3.23;2.27;;;;;;;;;;4952268;28;20609;-80
2022/11/16 19:28:35;;;;;;;5.60;3.20;;;;;;;;;;4951395;29;20395;-80
2022/11/16 19:31:14;;;;;;;5.63;3.80;;;;;;;;;;4955662;29;20031;-80
2022/11/16 19:33:40;;;;;;;18.03;7.77;;;;;;;;;;4956470;29;20434;-79
2022/11/16 19:36:11;;;;;;;4.63;4.33;;;;;;;;;;4957783;29;20027;-80
2022/11/16 19:38:37;;;;;;;0.10;0.10;;;;;;;;;;4957465;29;20027;-79
2022/11/16 19:41:04;;;;;;;1.90;1.77;;;;;;;;;;4957168;29;20039;-77
2022/11/16 19:43:31;;;;;;;3.50;3.23;;;;;;;;;;4939698;29;20058;-78
2022/11/16 19:46:02;;;;;;;1.17;1.13;;;;;;;;;;4957225;29;20047;-78
2022/11/16 19:48:29;;;;;;;1.07;1.03;;;;;;;;;;4940697;29;20036;-79
2022/11/16 19:50:56;;;;;;;2.13;1.97;;;;;;;;;;4945993;29;20027;-78
2022/11/16 19:53:22;;;;;;;6.83;2.30;;;;;;;;;;4939890;29;20035;-78
2022/11/16 19:55:54;;;;;;;1.17;1.17;;;;;;;;;;4947537;29;20057;-78
2022/11/16 19:58:21;;;;;;;2.37;1.30;;;;;;;;;;4939134;29;20051;-78
2022/11/16 20:00:47;;;;;;;5.53;5.10;;;;;;;;;;4956614;29;20026;-78
2022/11/16 20:03:13;;;;;;;0.50;0.50;;;;;;;;;;4939503;29;20046;-78
2022/11/16 20:05:40;;;;;;;0.30;0.30;;;;;;;;;;4957070;28;20381;-78
2022/11/16 20:08:06;;;;;;;0.00;0.00;;;;;;;;;;4955846;29;20042;-78
2022/11/16 20:10:32;;;;;;;0.37;0.37;;;;;;;;;;4956409;29;20063;-79
2022/11/16 20:12:59;;;;;;;0.00;0.00;;;;;;;;;;4938417;29;20039;-79
2022/11/16 20:15:25;;;;;;;0.73;0.20;;;;;;;;;;4936559;29;20039;-78
2022/11/16 20:17:52;;;;;;;0.00;0.00;;;;;;;;;;4920145;29;20035;-78
2022/11/16 20:20:18;;;;;;;0.00;0.00;;;;;;;;;;4950151;29;20035;-79
2022/11/16 20:22:46;;;;;;;0.00;0.00;;;;;;;;;;4955780;28;20038;-79
2022/11/16 20:25:13;;;;;;;1.40;1.10;;;;;;;;;;4955661;29;20027;-79
2022/11/16 20:27:40;;;;;;;0.00;0.00;;;;;;;;;;4966889;29;20097;-79
2022/11/16 20:30:06;;;;;;;0.10;0.10;;;;;;;;;;4964512;28;20031;-79
2022/11/16 20:32:33;;;;;;;10.30;7.63;;;;;;;;;;4939327;29;20027;-79
2022/11/16 20:34:59;;;;;;;0.37;0.37;;;;;;;;;;4939261;29;20170;-79
2022/11/16 20:37:25;;;;;;;0.20;0.20;;;;;;;;;;4956393;29;20541;-79
2022/11/16 20:39:55;;;;;;;2.57;2.37;;;;;;;;;;4939213;29;20413;-78
2022/11/16 20:42:22;;;;;;;2.63;1.80;;;;;;;;;;4937777;29;20060;-76
2022/11/16 20:44:49;;;;;;;0.67;0.67;;;;;;;;;;4935424;29;20133;-78
2022/11/16 20:47:15;;;;;;;1.73;1.10;;;;;;;;;;4936321;29;20390;-78
2022/11/16 20:49:41;;;;;;;0.17;0.10;;;;;;;;;;4936762;29;20509;-78
2022/11/16 20:52:08;;;;;;;0.17;0.13;;;;;;;;;;4935449;29;20032;-78
2022/11/16 20:54:34;;;;;;;5.70;2.57;;;;;;;;;;4936856;29;20042;-79
2022/11/16 20:57:01;;;;;;;1.97;1.77;;;;;;;;;;4936427;29;20066;-79
2022/11/16 20:59:27;;;;;;;2.73;2.07;;;;;;;;;;4936749;29;20052;-79
2022/11/16 21:01:53;;;;;;;14.00;5.17;;;;;;;;;;4936725;29;20030;-79
2022/11/16 21:04:20;;;;;;;2.43;0.67;;;;;;;;;;4943742;29;20074;-79
2022/11/16 21:06:46;;;;;;;3.53;1.47;;;;;;;;;;4939602;29;20489;-79
2022/11/16 21:09:21;;;;;;;7.63;2.20;;;;;;;;;;4947497;29;20034;-79
2022/11/16 21:14:34;;;;;;;5.00;2.33;;;;;;;;;;4955571;29;20041;-80
2022/11/16 21:17:01;;;;;;;4.93;2.13;;;;;;;;;;4961540;28;20051;-79
2022/11/16 21:19:28;;;;;;;1.47;1.33;;;;;;;;;;4958566;28;20533;-79
2022/11/16 21:21:54;;;;;;;3.60;2.73;;;;;;;;;;4951221;29;20489;-79
2022/11/16 21:24:23;;;;;;;1.00;1.00;;;;;;;;;;4937052;29;20051;-79
2022/11/16 21:26:50;;;;;;;1.60;1.20;;;;;;;;;;4957860;28;20059;-78
2022/11/16 21:29:16;;;;;;;6.50;4.57;;;;;;;;;;4964486;28;20039;-79
2022/11/16 21:31:42;;;;;;;2.93;1.63;;;;;;;;;;4955310;29;20028;-79
2022/11/16 21:34:09;;;;;;;1.33;0.97;;;;;;;;;;4973521;28;20126;-77
2022/11/16 21:36:35;;;;;;;0.63;0.57;;;;;;;;;;4969563;28;20027;-79
2022/11/16 21:39:01;;;;;;;0.13;0.13;;;;;;;;;;4936619;29;20035;-79
2022/11/16 21:41:28;;;;;;;0.20;0.20;;;;;;;;;;4954729;29;20055;-79
2022/11/16 21:43:54;;;;;;;2.47;1.17;;;;;;;;;;4937435;29;20082;-79
2022/11/16 21:46:23;;;;;;;3.87;1.87;;;;;;;;;;4937091;29;20087;-80
2022/11/16 21:48:51;;;;;;;3.23;1.87;;;;;;;;;;4954831;29;20493;-80
2022/11/16 21:51:19;;;;;;;0.33;0.33;;;;;;;;;;4963789;28;20035;-77
2022/11/16 21:53:46;;;;;;;4.50;2.10;;;;;;;;;;4955863;29;20027;-80
2022/11/16 21:56:13;;;;;;;3.03;1.77;;;;;;;;;;4937955;29;20086;-79
2022/11/16 21:58:40;;;;;;;5.03;2.77;;;;;;;;;;4964847;28;20486;-79
2022/11/16 22:01:07;;;;;;;0.93;0.90;;;;;;;;;;4962815;28;20052;-80
2022/11/16 22:03:33;;;;;;;3.00;2.67;;;;;;;;;;4939287;29;20074;-80
2022/11/16 22:08:47;;;;;;;7.00;3.37;;;;;;;;;;4955866;29;20104;-80
2022/11/16 22:11:14;;;;;;;2.27;1.40;;;;;;;;;;4947415;29;20031;-80
2022/11/16 22:13:41;;;;;;;5.30;2.53;;;;;;;;;;4957618;29;20035;-81
2022/11/16 22:16:08;;;;;;;2.73;1.67;;;;;;;;;;4938850;29;20082;-80
2022/11/16 22:18:34;;;;;;;3.93;2.70;;;;;;;;;;4957476;29;20063;-80
2022/11/16 22:21:01;;;;;;;2.03;1.80;;;;;;;;;;4941217;29;20030;-80
2022/11/16 22:23:28;;;;;;;1.10;0.67;;;;;;;;;;4940397;29;20028;-80
2022/11/16 22:25:54;;;;;;;3.00;1.20;;;;;;;;;;4957172;29;20023;-80
2022/11/16 22:28:21;;;;;;;1.87;1.27;;;;;;;;;;4962152;29;20042;-81
2022/11/16 22:30:47;;;;;;;1.97;1.17;;;;;;;;;;4960346;29;20114;-80
2022/11/16 22:33:14;;;;;;;1.20;0.90;;;;;;;;;;4967208;28;20031;-80
2022/11/16 22:35:40;;;;;;;2.50;1.23;;;;;;;;;;4961341;28;20055;-80
2022/11/16 22:38:09;;;;;;;1.90;1.00;;;;;;;;;;4962868;28;20031;-80
2022/11/16 22:51:57;;;;;;;;;;;;;;;;;;5111644;27;19912;-81
2022/11/16 22:54:23;;;;;;;;;;;;;;;;;;5110510;28;19912;-80
2022/11/16 22:56:50;;;;;;;;;;;;;;;;;;5094663;28;20255;-80
2022/11/16 22:59:16;;;;;;;;;;;;;;;;;;5097736;28;19916;-80
2022/11/16 23:01:42;;;;;;;;;;;;;;;;;;5105272;28;19954;-80
2022/11/16 23:04:08;;;;;;;;;;;;;;;;;;5108235;28;20242;-80
2022/11/16 23:06:34;;;;;;;;;;;;;;;;;;5107815;28;19907;-80
2022/11/16 23:09:00;;;;;;;;;;;;;;;;;;5110533;28;19915;-80
2022/11/16 23:16:56;;;;;;;;;;;;;;;;;;5106796;28;19915;-80
2022/11/16 23:27:36;;;;;;;;;;;;;;;;;;5107467;28;19918;-80
2022/11/16 23:30:02;;;;;;;;;;;;;;;;;;5104057;28;20348;-80
2022/11/16 23:32:28;;;;;;;;;;;;;;;;;;5099959;28;20310;-80
2022/11/16 23:34:54;;;;;;;;;;;;;;;;;;5095433;28;19954;-80
2022/11/16 23:37:20;;;;;;;;;;;;;;;;;;5105884;28;19975;-80
2022/11/16 23:39:46;;;;;;;;;;;;;;;;;;5108838;28;19922;-80
2022/11/16 23:44:56;;;;;;;;;;;;;;;;;;5095582;28;20078;-80
2022/11/16 23:47:22;;;;;;;;;;;;;;;;;;5102283;28;19916;-80
2022/11/16 23:49:49;;;;;;;;;;;;;;;;;;5100372;28;19904;-80
2022/11/16 23:52:15;;;;;;;;;;;;;;;;;;5085723;28;19992;-80
2022/11/16 23:54:41;;;;;;;;;;;;;;;;;;5083097;28;19908;-80
2022/11/16 23:57:07;;;;;;;;;;;;;;;;;;5075220;28;20028;-80
2022/11/16 23:59:33;;;;;;;;;;;;;;;;;;5076431;28;19978;-81
